Riviera Beach, Texas
Current Conditions -  °F | °C
As of 5:56 AM on Friday 28 Nov 2014 (Local Time) from KNQI Reporting Station
Moderate Fog Moderate Fog  
Wind Chill:   Ceiling: 100
Heat Index:   Visibility: 0.5mi
Dew Point:   Wind: 0mph
Humidity: 100%   Direction: NA
Pressure: 30.31"   Gusts: NA
Location:  27.3193°N, 97.8839°W
Report Text: KNQI 281156Z 00000KT 1/2SM FG BKN001 OVC005 09/09 A3031 RMK AO2 SLP261 T00890089 10133 20078 56004 $
Loading
Personal Weather Stations






























Interactive Weather Map New forecast layout! Learn more

10-Day Weather Forecast

Advertisements
Track Severe Weather on mobile